Terminal Aerodrome Forecast
Issued by NWS Tuscon, AZ

Home | Current Version | Previous Version | Text Only | Print | Product List | Glossary On
Versions: 1 2 3 4 5 6 7 8 9 10 11 12 13 14 15 16
000
FTUS45 KTWC 211700
TAFTUS
TAF
KTUS 211721Z 2118/2218 VRB04KT P6SM FEW060 BKN130
     FM212000 34006KT P6SM VCSH SCT070
     FM220100 13005KT P6SM SCT090 BKN150=

USA.gov is the U.S. government's official web portal to all federal, state and local government web resources and services.